Airport Name : Campo Dell Oro

Other Name : Ajaccio

ICAO : LFKJ

IATA : AJA

FAA :

Latitude : 41.923637

Longitude : 8.802917

Country : France

Local Date and Time : 4/26/2018 6:07:00 AM

 

TAF (Terminal Aerodrome Forecast)

TAF LFKJ 260200Z 2603/2703 VRB05KT CAVOK PROB30 TEMPO 2603/2606 BKN014 TEMPO 2610/2615 22012KT

 

METAR (METeorological Aerodrome Report)

LFKJ 260400Z AUTO 04006KT CAVOK 12/09 Q1013 TEMPO BKN014

LFKJ 260330Z AUTO 04006KT CAVOK 12/09 Q1013 TEMPO BKN014

LFKJ 260300Z AUTO 05005KT CAVOK 12/09 Q1014 TEMPO BKN014

LFKJ 260230Z AUTO 06005KT CAVOK 12/10 Q1014 TEMPO BKN014

LFKJ 260200Z AUTO VRB02KT CAVOK 13/10 Q1014 TEMPO BKN014

LFKJ 260130Z AUTO VRB03KT CAVOK 13/10 Q1015 TEMPO BKN014

LFKJ 260100Z AUTO VRB03KT CAVOK 14/10 Q1015 TEMPO BKN014

LFKJ 260030Z AUTO VRB03KT CAVOK 14/10 Q1015 TEMPO BKN014